Time;durP1;ratioP1;P1;durP2;ratioP2;P2;SDS_P1;SDS_P2;PMS_P1;PMS_P2;Temp;Humidity;BMP_temperature;BMP_pressure;BME280_temperature;BME280_humidity;BME280_pressure;Samples;Min_cycle;Max_cycle;Signal;HPM_P1;HPM_P2
2023/04/20 00:01:44;;;;;;;0.95;0.80;;;7.00;99.90;;;;;;5041699;28;20011;-89
2023/04/20 00:04:10;;;;;;;0.50;0.50;;;7.10;99.90;;;;;;5069543;28;20041;-83
2023/04/20 00:06:36;;;;;;;0.60;0.60;;;6.90;99.90;;;;;;5041081;28;20037;-83
2023/04/20 00:09:03;;;;;;;0.68;0.68;;;6.80;99.90;;;;;;5057504;28;20037;-80
2023/04/20 00:11:29;;;;;;;0.60;0.60;;;6.80;99.90;;;;;;5057499;28;20112;-86
2023/04/20 00:13:55;;;;;;;0.60;0.60;;;6.80;99.90;;;;;;5057294;28;20060;-83
2023/04/20 00:16:21;;;;;;;0.68;0.68;;;6.90;99.90;;;;;;5046662;28;20085;-87
2023/04/20 00:18:47;;;;;;;0.60;0.60;;;6.70;99.90;;;;;;5040737;28;20049;-87
2023/04/20 00:21:13;;;;;;;0.55;0.55;;;6.70;99.90;;;;;;5038978;28;20142;-88
2023/04/20 00:23:40;;;;;;;0.50;0.50;;;6.80;99.90;;;;;;5041004;28;20447;-90
2023/04/20 00:26:06;;;;;;;0.70;0.70;;;6.90;99.90;;;;;;5039533;28;20050;-89
2023/04/20 00:28:32;;;;;;;0.80;0.70;;;6.90;99.90;;;;;;5043339;28;20050;-83
2023/04/20 00:30:58;;;;;;;0.60;0.60;;;6.90;99.90;;;;;;5054120;28;20077;-90
2023/04/20 00:33:24;;;;;;;0.60;0.60;;;6.90;99.90;;;;;;5038614;28;20048;-87
2023/04/20 00:35:49;;;;;;;0.50;0.50;;;6.90;99.90;;;;;;5037878;28;20045;-88
2023/04/20 00:38:15;;;;;;;0.57;0.57;;;7.00;99.90;;;;;;5039049;28;20076;-87
2023/04/20 00:40:47;;;;;;;0.50;0.50;;;7.00;99.90;;;;;;5022973;28;20068;-90
2023/04/20 00:43:14;;;;;;;0.50;0.50;;;7.00;99.90;;;;;;5037670;28;20060;-85
2023/04/20 00:45:40;;;;;;;0.52;0.52;;;7.10;99.90;;;;;;5020669;28;20060;-89
2023/04/20 00:48:06;;;;;;;0.47;0.47;;;7.10;99.90;;;;;;5039344;28;20045;-87
2023/04/20 00:50:33;;;;;;;0.65;0.65;;;7.10;99.90;;;;;;5054976;28;20103;-87
2023/04/20 00:52:59;;;;;;;0.50;0.50;;;7.20;99.90;;;;;;5037967;28;20041;-88
2023/04/20 00:55:26;;;;;;;0.70;0.70;;;7.30;99.90;;;;;;5021884;28;20111;-88
2023/04/20 00:57:51;;;;;;;;;;;7.20;99.90;;;;;;5039300;28;20045;-88
2023/04/20 01:00:17;;;;;;;0.60;0.60;;;7.10;99.90;;;;;;5036129;28;19977;-89
2023/04/20 01:02:43;;;;;;;0.98;0.98;;;7.00;99.90;;;;;;5021060;28;20140;-89
2023/04/20 01:05:09;;;;;;;0.45;0.45;;;7.00;99.90;;;;;;5036711;28;20055;-88
2023/04/20 01:07:35;;;;;;;;;;;6.90;99.90;;;;;;5053404;28;20081;-88
2023/04/20 01:10:01;;;;;;;0.40;0.40;;;6.90;99.90;;;;;;5037496;28;19944;-88
2023/04/20 01:12:27;;;;;;;0.63;0.63;;;6.90;99.90;;;;;;5037974;28;20053;-87
2023/04/20 01:14:53;;;;;;;0.40;0.40;;;6.90;99.90;;;;;;5042992;28;20041;-87
2023/04/20 01:17:20;;;;;;;0.63;0.63;;;7.00;99.90;;;;;;5019201;28;20075;-89
2023/04/20 01:19:45;;;;;;;0.52;0.52;;;7.00;99.90;;;;;;5036313;28;20041;-88
2023/04/20 01:22:16;;;;;;;0.50;0.50;;;7.00;99.90;;;;;;5019990;28;20048;-88
2023/04/20 01:24:41;;;;;;;0.60;0.60;;;7.10;99.90;;;;;;5039118;28;20041;-90
2023/04/20 01:27:07;;;;;;;0.60;0.60;;;7.10;99.90;;;;;;5037851;28;20041;-83
2023/04/20 01:29:34;;;;;;;0.50;0.50;;;7.10;99.90;;;;;;5036775;28;20049;-86
2023/04/20 01:32:00;;;;;;;0.40;0.40;;;7.10;99.90;;;;;;5038358;28;20053;-89
2023/04/20 01:34:25;;;;;;;0.50;0.50;;;7.10;99.90;;;;;;5021187;28;20540;-89
2023/04/20 01:36:51;;;;;;;0.60;0.60;;;7.00;99.90;;;;;;5038264;28;20046;-88
2023/04/20 01:39:17;;;;;;;0.40;0.40;;;6.90;99.90;;;;;;5003755;28;20473;-88
2023/04/20 01:41:43;;;;;;;6.90;1.08;;;6.90;99.90;;;;;;5053013;28;20049;-89
2023/04/20 01:44:08;;;;;;;0.60;0.60;;;6.80;99.90;;;;;;5004591;28;20045;-83
2023/04/20 01:46:40;;;;;;;0.50;0.50;;;6.80;99.90;;;;;;5046004;28;20049;-88
2023/04/20 01:49:07;;;;;;;0.50;0.50;;;6.80;99.90;;;;;;5008679;28;20053;-89
2023/04/20 01:51:36;;;;;;;0.45;0.45;;;6.80;99.90;;;;;;5041372;28;20053;-87
2023/04/20 01:54:02;;;;;;;0.50;0.50;;;6.80;99.90;;;;;;5040325;28;20045;-89
2023/04/20 01:56:27;;;;;;;;;;;6.70;99.90;;;;;;5024286;28;20114;-87
2023/04/20 01:58:53;;;;;;;0.65;0.65;;;6.60;99.90;;;;;;5040579;28;19921;-86
2023/04/20 02:01:19;;;;;;;0.50;0.50;;;6.50;99.90;;;;;;5039460;28;20540;-86
2023/04/20 02:03:45;;;;;;;0.40;0.40;;;6.40;99.90;;;;;;5056221;28;20045;-83
2023/04/20 02:06:11;;;;;;;0.80;0.80;;;6.40;99.90;;;;;;5039925;28;20092;-83
2023/04/20 02:08:36;;;;;;;0.70;0.70;;;6.40;99.90;;;;;;5023935;28;20049;-85
2023/04/20 02:11:02;;;;;;;0.60;0.60;;;6.20;99.90;;;;;;5039787;28;20084;-86
2023/04/20 02:13:28;;;;;;;0.63;0.63;;;6.20;99.90;;;;;;5039923;28;20039;-88
2023/04/20 02:15:54;;;;;;;0.50;0.50;;;6.20;99.90;;;;;;5039785;28;20089;-87
2023/04/20 02:18:20;;;;;;;0.60;0.60;;;6.10;99.90;;;;;;5039045;28;20377;-86
2023/04/20 02:20:46;;;;;;;0.57;0.57;;;6.20;99.90;;;;;;5040061;28;20195;-87
2023/04/20 02:23:12;;;;;;;6.30;3.40;;;6.20;99.90;;;;;;5024020;28;20053;-85
2023/04/20 02:25:38;;;;;;;0.60;0.60;;;6.20;99.90;;;;;;5040628;28;20100;-89
2023/04/20 02:28:04;;;;;;;0.60;0.60;;;6.30;99.90;;;;;;5040076;28;20420;-85
2023/04/20 02:30:30;;;;;;;1.13;1.13;;;6.50;99.90;;;;;;5023365;28;20067;-88
2023/04/20 02:32:56;;;;;;;0.50;0.50;;;6.60;99.90;;;;;;5039890;28;20103;-86
2023/04/20 02:35:22;;;;;;;0.70;0.70;;;6.60;99.90;;;;;;5039226;28;20041;-86
2023/04/20 02:37:48;;;;;;;0.50;0.50;;;6.60;99.90;;;;;;5042595;28;20084;-89
2023/04/20 02:40:14;;;;;;;0.70;0.70;;;6.60;99.90;;;;;;5041326;28;20045;-84
2023/04/20 02:42:39;;;;;;;;;;;6.70;99.90;;;;;;5041492;28;20045;-88
2023/04/20 02:45:06;;;;;;;0.60;0.60;;;6.70;99.90;;;;;;5039865;28;19928;-88
2023/04/20 02:47:32;;;;;;;0.50;0.50;;;6.70;99.90;;;;;;5040544;28;20045;-85
2023/04/20 02:49:57;;;;;;;0.60;0.60;;;6.80;99.90;;;;;;5023176;28;20048;-90
2023/04/20 02:52:23;;;;;;;0.50;0.50;;;6.90;99.90;;;;;;5041109;28;20040;-86
2023/04/20 02:54:49;;;;;;;0.65;0.65;;;7.00;99.90;;;;;;5041542;28;20132;-86
2023/04/20 02:57:15;;;;;;;0.70;0.70;;;7.10;99.90;;;;;;5026339;28;20049;-83
2023/04/20 02:59:40;;;;;;;0.40;0.40;;;7.10;99.90;;;;;;5075586;28;20036;-83
2023/04/20 03:02:06;;;;;;;0.50;0.50;;;7.20;99.90;;;;;;5059264;28;20021;-84
2023/04/20 03:04:32;;;;;;;0.60;0.60;;;7.20;99.90;;;;;;5058919;28;20152;-85
2023/04/20 03:06:59;;;;;;;0.40;0.40;;;7.30;99.90;;;;;;5059138;28;20053;-90
2023/04/20 03:09:24;;;;;;;0.63;0.63;;;7.30;99.90;;;;;;5041920;28;20041;-84
2023/04/20 03:11:51;;;;;;;0.50;0.50;;;7.40;99.90;;;;;;5045000;28;20128;-87
2023/04/20 03:14:17;;;;;;;1.08;1.08;;;7.50;99.90;;;;;;5039616;28;20052;-87
2023/04/20 03:16:43;;;;;;;0.50;0.50;;;7.60;99.90;;;;;;5039540;28;20128;-83
2023/04/20 03:19:09;;;;;;;0.52;0.52;;;7.60;99.90;;;;;;5039223;28;20491;-88
2023/04/20 03:21:35;;;;;;;0.40;0.40;;;7.70;99.90;;;;;;5038639;28;20045;-88
2023/04/20 03:24:00;;;;;;;1.70;1.67;;;7.70;99.90;;;;;;5021544;28;20064;-88
2023/04/20 03:26:26;;;;;;;0.47;0.47;;;7.80;99.90;;;;;;5022500;28;20412;-90
2023/04/20 03:28:52;;;;;;;0.52;0.52;;;7.80;99.90;;;;;;5022267;28;20049;-86
2023/04/20 03:31:18;;;;;;;0.47;0.47;;;7.80;99.90;;;;;;5039515;28;20056;-84
2023/04/20 03:33:43;;;;;;;2.15;2.05;;;7.80;99.90;;;;;;5038641;28;20461;-88
2023/04/20 03:36:12;;;;;;;0.40;0.40;;;7.80;99.90;;;;;;5039444;28;20051;-88
2023/04/20 03:38:38;;;;;;;5.05;0.65;;;7.90;99.90;;;;;;5038935;28;20041;-88
2023/04/20 03:41:04;;;;;;;0.40;0.40;;;7.90;99.90;;;;;;5040457;28;20046;-89
2023/04/20 03:43:30;;;;;;;;;;;8.00;99.90;;;;;;5039085;28;20053;-89
2023/04/20 03:45:55;;;;;;;0.40;0.40;;;8.00;99.90;;;;;;5045353;28;19952;-86
2023/04/20 03:48:21;;;;;;;0.60;0.60;;;8.00;99.90;;;;;;5040965;28;20102;-88
2023/04/20 03:50:47;;;;;;;0.50;0.50;;;8.00;99.90;;;;;;5039199;28;20085;-88
2023/04/20 03:53:12;;;;;;;0.40;0.40;;;8.00;99.90;;;;;;5038621;28;20037;-87
2023/04/20 03:55:38;;;;;;;0.40;0.40;;;8.00;99.90;;;;;;5038349;28;20045;-90
2023/04/20 03:58:07;;;;;;;0.50;0.50;;;7.90;99.90;;;;;;5039048;28;20041;-88
2023/04/20 04:00:33;;;;;;;0.50;0.50;;;7.90;99.90;;;;;;5038635;28;20037;-90
2023/04/20 04:02:59;;;;;;;0.60;0.60;;;7.90;99.90;;;;;;5037797;28;20481;-88
2023/04/20 04:05:25;;;;;;;0.57;0.57;;;7.90;99.90;;;;;;5038378;28;20045;-88
2023/04/20 04:07:50;;;;;;;0.60;0.60;;;7.90;99.90;;;;;;5037448;28;20053;-88
2023/04/20 04:10:17;;;;;;;0.40;0.40;;;7.90;99.90;;;;;;5038588;28;20054;-87
2023/04/20 04:12:46;;;;;;;0.60;0.60;;;7.90;99.90;;;;;;5023906;28;20057;-88
2023/04/20 04:15:12;;;;;;;0.50;0.50;;;7.90;99.90;;;;;;5040462;28;20475;-90
2023/04/20 04:17:38;;;;;;;0.40;0.40;;;7.90;99.90;;;;;;5022892;28;20057;-90
2023/04/20 04:20:07;;;;;;;0.50;0.50;;;7.90;99.90;;;;;;5041387;28;20045;-85
2023/04/20 04:22:32;;;;;;;0.65;0.65;;;7.90;99.90;;;;;;5060831;28;20053;-89
2023/04/20 04:24:58;;;;;;;0.47;0.47;;;7.90;99.90;;;;;;5037490;28;20041;-85
2023/04/20 04:27:24;;;;;;;0.73;0.73;;;7.80;99.90;;;;;;5053858;28;20154;-88
2023/04/20 04:29:50;;;;;;;0.50;0.50;;;7.80;99.90;;;;;;5055407;28;20063;-88
2023/04/20 04:32:15;;;;;;;0.50;0.50;;;7.70;99.90;;;;;;5040886;28;20132;-86
2023/04/20 04:34:43;;;;;;;0.50;0.50;;;7.60;99.90;;;;;;5049604;28;20046;-88
2023/04/20 04:37:10;;;;;;;0.40;0.40;;;7.60;99.90;;;;;;5039255;28;20088;-85
2023/04/20 04:39:36;;;;;;;0.45;0.45;;;7.40;99.90;;;;;;5038436;28;20053;-90
2023/04/20 04:42:02;;;;;;;0.40;0.40;;;7.40;99.90;;;;;;5038203;28;20106;-89
2023/04/20 04:44:30;;;;;;;0.50;0.50;;;7.40;99.90;;;;;;5004957;28;20081;-88
2023/04/20 04:46:56;;;;;;;0.70;0.70;;;7.30;99.90;;;;;;5039405;28;20412;-85
2023/04/20 04:49:23;;;;;;;;;;;7.30;99.90;;;;;;5039764;28;20057;-85
2023/04/20 04:51:49;;;;;;;;;;;7.30;99.90;;;;;;5053819;28;19944;-85
2023/04/20 04:54:15;;;;;;;0.47;0.47;;;7.40;99.90;;;;;;5035125;28;19921;-89
2023/04/20 04:56:40;;;;;;;0.60;0.60;;;7.40;99.90;;;;;;5036504;28;20053;-89
2023/04/20 04:59:06;;;;;;;0.50;0.50;;;7.50;99.90;;;;;;5053841;28;20126;-89
2023/04/20 05:01:31;;;;;;;0.52;0.52;;;7.50;99.90;;;;;;5038865;28;20045;-86
2023/04/20 05:03:57;;;;;;;1.02;1.02;;;7.50;99.90;;;;;;5038384;28;20503;-82
2023/04/20 05:06:23;;;;;;;0.40;0.40;;;7.50;99.90;;;;;;5036191;28;20038;-87
2023/04/20 05:08:49;;;;;;;0.60;0.60;;;7.60;99.90;;;;;;5021588;28;20072;-88
2023/04/20 05:11:14;;;;;;;0.85;0.85;;;7.60;99.90;;;;;;5039187;28;20049;-89
2023/04/20 05:13:40;;;;;;;0.45;0.45;;;7.60;99.90;;;;;;5038161;28;20526;-87
2023/04/20 05:16:06;;;;;;;0.40;0.40;;;7.50;99.90;;;;;;5037854;28;20099;-87
2023/04/20 05:18:32;;;;;;;0.50;0.50;;;7.60;99.90;;;;;;5037780;28;20056;-86
2023/04/20 05:20:58;;;;;;;0.63;0.63;;;7.60;99.90;;;;;;5037655;28;20057;-87
2023/04/20 05:23:24;;;;;;;0.50;0.50;;;7.50;99.90;;;;;;5020925;28;20049;-85
2023/04/20 05:25:49;;;;;;;0.50;0.50;;;7.50;99.90;;;;;;5037662;28;20049;-88
2023/04/20 05:28:15;;;;;;;0.43;0.43;;;7.40;99.90;;;;;;5037328;28;20128;-89
2023/04/20 05:30:41;;;;;;;0.50;0.50;;;7.30;99.90;;;;;;5037045;28;20045;-88
2023/04/20 05:33:07;;;;;;;0.50;0.50;;;7.20;99.90;;;;;;5020069;28;20175;-86
2023/04/20 05:35:33;;;;;;;0.57;0.57;;;7.10;99.90;;;;;;5036480;28;20536;-87
2023/04/20 05:38:01;;;;;;;0.50;0.50;;;7.00;99.90;;;;;;5037319;28;20088;-85
2023/04/20 05:40:27;;;;;;;1.20;1.10;;;6.90;99.90;;;;;;5037246;28;20049;-84
2023/04/20 05:42:53;;;;;;;0.50;0.50;;;6.90;99.90;;;;;;5037052;28;20106;-87
2023/04/20 05:45:18;;;;;;;0.60;0.60;;;6.90;99.90;;;;;;5036815;28;20053;-87
2023/04/20 05:47:56;;;;;;;0.50;0.50;;;6.90;99.90;;;;;;5038201;28;20041;-87
2023/04/20 05:50:23;;;;;;;0.40;0.40;;;7.00;99.90;;;;;;5036867;28;20049;-86
2023/04/20 05:52:50;;;;;;;0.40;0.40;;;7.00;99.90;;;;;;5037473;28;20064;-84
2023/04/20 05:55:17;;;;;;;0.50;0.50;;;7.00;99.90;;;;;;5037854;28;20037;-88
2023/04/20 05:57:42;;;;;;;0.98;0.98;;;7.10;99.90;;;;;;5020525;28;20085;-86
2023/04/20 06:00:14;;;;;;;0.43;0.43;;;7.10;99.90;;;;;;5035557;28;20500;-88
2023/04/20 06:02:41;;;;;;;0.70;0.70;;;7.10;99.90;;;;;;5036847;28;20542;-84
2023/04/20 06:05:08;;;;;;;0.60;0.60;;;7.20;99.90;;;;;;5019540;28;20050;-89
2023/04/20 06:07:34;;;;;;;1.90;1.73;;;7.20;99.90;;;;;;5035830;28;20056;-87
2023/04/20 06:10:00;;;;;;;0.60;0.60;;;7.20;99.90;;;;;;5052052;28;20045;-88
2023/04/20 06:12:28;;;;;;;0.47;0.47;;;7.20;99.90;;;;;;5019779;28;20061;-88
2023/04/20 06:14:55;;;;;;;0.30;0.30;;;7.20;99.90;;;;;;5036113;28;20041;-87
2023/04/20 06:17:21;;;;;;;0.30;0.30;;;7.20;99.90;;;;;;5035932;28;20061;-89
2023/04/20 06:19:46;;;;;;;0.50;0.50;;;7.10;99.90;;;;;;5037615;28;20057;-89
2023/04/20 06:22:13;;;;;;;0.40;0.40;;;7.00;99.90;;;;;;5019778;28;20049;-87
2023/04/20 06:24:41;;;;;;;0.73;0.73;;;6.90;99.90;;;;;;5037455;28;20061;-87
2023/04/20 06:27:07;;;;;;;0.73;0.73;;;6.80;99.90;;;;;;5020075;28;20076;-83
2023/04/20 06:29:33;;;;;;;0.60;0.60;;;6.70;99.90;;;;;;5034952;28;20053;-86
2023/04/20 06:31:59;;;;;;;0.60;0.60;;;6.60;99.90;;;;;;5039607;28;20056;-90
2023/04/20 06:34:24;;;;;;;0.65;0.65;;;6.60;99.90;;;;;;5041149;28;20132;-85
2023/04/20 06:36:50;;;;;;;0.52;0.52;;;6.50;99.90;;;;;;5040248;28;20068;-86
2023/04/20 06:39:16;;;;;;;0.57;0.57;;;6.40;99.90;;;;;;5038419;28;20148;-85
2023/04/20 06:41:42;;;;;;;0.50;0.50;;;6.30;99.90;;;;;;5039418;28;20045;-88
2023/04/20 06:44:08;;;;;;;;;;;6.20;99.90;;;;;;5054666;28;20049;-86
2023/04/20 06:46:34;;;;;;;0.60;0.60;;;6.10;99.90;;;;;;5038292;28;19928;-85
2023/04/20 06:49:00;;;;;;;;;;;6.00;99.90;;;;;;5055924;28;20177;-86
2023/04/20 06:51:27;;;;;;;0.50;0.50;;;5.90;99.90;;;;;;5039901;28;19990;-87
2023/04/20 06:53:54;;;;;;;0.60;0.60;;;5.90;99.90;;;;;;5054324;28;20060;-85
2023/04/20 06:56:20;;;;;;;;;;;5.90;99.90;;;;;;5038790;28;20045;-86
2023/04/20 06:58:46;;;;;;;0.50;0.50;;;6.00;99.90;;;;;;5038392;28;19921;-87
2023/04/20 07:01:12;;;;;;;0.60;0.60;;;5.90;99.90;;;;;;5037607;28;20064;-85
2023/04/20 07:03:37;;;;;;;1.05;1.05;;;6.00;99.90;;;;;;5038171;28;20049;-85
2023/04/20 07:06:05;;;;;;;0.60;0.60;;;6.00;99.90;;;;;;5038562;28;20049;-84
2023/04/20 07:08:33;;;;;;;1.63;1.52;;;5.90;99.90;;;;;;5039209;28;20056;-87
2023/04/20 07:10:59;;;;;;;0.50;0.50;;;6.00;99.90;;;;;;5039588;28;20277;-86
2023/04/20 07:13:25;;;;;;;0.70;0.70;;;6.00;99.90;;;;;;5015845;28;20447;-84
2023/04/20 07:15:51;;;;;;;0.60;0.60;;;6.00;99.90;;;;;;5040262;28;20101;-85
2023/04/20 07:18:17;;;;;;;;;;;6.00;99.90;;;;;;5057648;28;20089;-84
2023/04/20 07:20:43;;;;;;;0.70;0.70;;;6.10;99.90;;;;;;5039901;28;19920;-85
2023/04/20 07:23:08;;;;;;;0.57;0.57;;;6.10;99.90;;;;;;5054583;28;20051;-87
2023/04/20 07:25:35;;;;;;;0.47;0.47;;;6.20;99.90;;;;;;5039977;28;20124;-90
2023/04/20 07:28:00;;;;;;;0.60;0.60;;;6.30;99.90;;;;;;5037476;28;20107;-86
2023/04/20 07:30:26;;;;;;;0.57;0.57;;;6.30;99.90;;;;;;5038281;28;20088;-86
2023/04/20 07:32:52;;;;;;;0.60;0.60;;;6.40;99.90;;;;;;5021359;28;20076;-85
2023/04/20 07:35:18;;;;;;;0.60;0.60;;;6.40;99.90;;;;;;5020316;28;20048;-86
2023/04/20 07:37:43;;;;;;;0.55;0.55;;;6.40;99.90;;;;;;5036877;28;20061;-86
2023/04/20 07:40:09;;;;;;;0.40;0.40;;;6.40;99.90;;;;;;5040577;28;20405;-87
2023/04/20 07:42:36;;;;;;;;;;;6.40;99.90;;;;;;5036602;28;20060;-88
2023/04/20 07:45:05;;;;;;;0.47;0.47;;;6.50;99.90;;;;;;5036628;28;20355;-87
2023/04/20 07:47:35;;;;;;;0.50;0.50;;;6.50;99.90;;;;;;5036734;28;20382;-87
2023/04/20 07:50:01;;;;;;;0.52;0.52;;;6.60;99.90;;;;;;5053584;28;20049;-85
2023/04/20 07:52:26;;;;;;;0.68;0.68;;;6.70;99.90;;;;;;5037452;28;20048;-85
2023/04/20 07:54:52;;;;;;;0.40;0.40;;;6.90;99.90;;;;;;5038628;28;20049;-88
2023/04/20 07:57:19;;;;;;;0.60;0.60;;;7.00;99.90;;;;;;5037929;28;20191;-85
2023/04/20 07:59:46;;;;;;;0.45;0.45;;;7.10;99.90;;;;;;5035490;28;20091;-88
2023/04/20 08:02:11;;;;;;;0.47;0.47;;;7.20;99.90;;;;;;5037062;28;20387;-88
2023/04/20 08:04:47;;;;;;;1.48;0.80;;;7.10;99.90;;;;;;5039094;28;20061;-85
2023/04/20 08:07:13;;;;;;;0.63;0.63;;;6.90;99.90;;;;;;5037451;28;20057;-88
2023/04/20 08:09:38;;;;;;;2.42;2.20;;;6.80;99.90;;;;;;5038341;28;20068;-87
2023/04/20 08:12:05;;;;;;;0.50;0.50;;;6.70;99.90;;;;;;5038491;28;20092;-86
2023/04/20 08:14:31;;;;;;;;;;;6.70;99.90;;;;;;5037505;28;20037;-88
2023/04/20 08:16:56;;;;;;;0.57;0.57;;;6.70;99.90;;;;;;5037030;28;19920;-86
2023/04/20 08:19:22;;;;;;;0.50;0.50;;;6.80;99.90;;;;;;5037648;28;20050;-88
2023/04/20 08:21:50;;;;;;;0.60;0.60;;;6.90;99.90;;;;;;5036354;28;20072;-86
2023/04/20 08:24:15;;;;;;;0.50;0.50;;;6.90;99.90;;;;;;5034723;28;20057;-88
2023/04/20 08:26:42;;;;;;;0.50;0.50;;;6.90;99.90;;;;;;5036112;28;20053;-84
2023/04/20 08:29:07;;;;;;;0.40;0.40;;;6.90;99.90;;;;;;5036222;28;20137;-87
2023/04/20 08:31:33;;;;;;;0.50;0.50;;;6.80;99.90;;;;;;5052931;28;20041;-85
2023/04/20 08:34:00;;;;;;;0.70;0.70;;;6.80;99.90;;;;;;5052817;28;20045;-86
2023/04/20 08:36:26;;;;;;;0.52;0.52;;;6.80;99.90;;;;;;5052905;28;20049;-87
2023/04/20 08:39:12;;;;;;;0.55;0.55;;;6.80;99.90;;;;;;5036146;28;20049;-85
2023/04/20 08:41:38;;;;;;;0.60;0.60;;;6.80;99.90;;;;;;5036046;28;20049;-87
2023/04/20 08:44:05;;;;;;;0.50;0.50;;;6.80;99.90;;;;;;5035927;28;20092;-86
2023/04/20 08:46:33;;;;;;;0.75;0.75;;;6.70;99.90;;;;;;5036227;28;20049;-85
2023/04/20 08:49:03;;;;;;;0.40;0.40;;;6.60;99.90;;;;;;5035845;28;20053;-85
2023/04/20 08:51:31;;;;;;;0.63;0.63;;;6.60;99.90;;;;;;5053014;28;20505;-86
2023/04/20 08:54:04;;;;;;;0.60;0.60;;;6.50;99.90;;;;;;5035330;28;20124;-86
2023/04/20 08:56:43;;;;;;;0.50;0.50;;;6.60;99.90;;;;;;5018914;28;20504;-87
2023/04/20 08:59:09;;;;;;;0.45;0.45;;;6.80;99.90;;;;;;5051921;28;20049;-85
2023/04/20 09:01:35;;;;;;;;;;;7.00;99.90;;;;;;5036516;28;20068;-86
2023/04/20 09:04:02;;;;;;;0.60;0.60;;;7.20;99.90;;;;;;5036307;28;20268;-87
2023/04/20 09:06:27;;;;;;;0.50;0.50;;;7.30;99.90;;;;;;5053173;28;20498;-87
2023/04/20 09:08:54;;;;;;;0.65;0.65;;;7.50;99.90;;;;;;5036168;28;20049;-87
2023/04/20 09:11:21;;;;;;;0.70;0.70;;;7.70;99.90;;;;;;5035040;28;20469;-87
2023/04/20 09:14:14;;;;;;;0.40;0.40;;;7.90;99.90;;;;;;5040317;28;20049;-84
2023/04/20 09:16:51;;;;;;;0.50;0.50;;;8.10;99.90;;;;;;5035044;28;20546;-83
2023/04/20 09:19:24;;;;;;;0.60;0.60;;;8.20;99.90;;;;;;5037394;28;20389;-88
2023/04/20 09:21:51;;;;;;;1.13;1.08;;;8.20;99.90;;;;;;5035313;28;20222;-86
2023/04/20 09:24:22;;;;;;;0.40;0.40;;;8.30;99.90;;;;;;5035269;28;20129;-84
2023/04/20 09:26:47;;;;;;;0.40;0.40;;;8.40;99.90;;;;;;5052187;28;20065;-84
2023/04/20 09:29:18;;;;;;;0.40;0.40;;;8.40;99.90;;;;;;5018748;28;20124;-88
2023/04/20 09:31:44;;;;;;;0.30;0.30;;;8.50;99.90;;;;;;5035639;28;20448;-84
2023/04/20 09:34:10;;;;;;;1.20;0.85;;;8.50;99.90;;;;;;5018816;28;20049;-88
2023/04/20 09:36:41;;;;;;;0.50;0.50;;;8.60;99.90;;;;;;5019470;28;20053;-87
2023/04/20 09:39:11;;;;;;;0.40;0.40;;;8.80;99.90;;;;;;5036911;28;20446;-89
2023/04/20 09:41:38;;;;;;;1.38;0.88;;;8.90;99.90;;;;;;5035066;28;20046;-83
2023/04/20 09:44:05;;;;;;;0.40;0.40;;;9.00;99.90;;;;;;5034103;28;20056;-87
2023/04/20 09:46:35;;;;;;;0.45;0.45;;;9.00;99.90;;;;;;5019537;28;20095;-88
2023/04/20 09:49:06;;;;;;;0.30;0.30;;;9.10;99.90;;;;;;5036482;28;20085;-87
2023/04/20 09:51:40;;;;;;;0.40;0.40;;;9.10;99.90;;;;;;5035680;28;20419;-88
2023/04/20 09:54:07;;;;;;;0.35;0.35;;;9.20;99.90;;;;;;5035833;28;20053;-87
2023/04/20 09:56:34;;;;;;;0.50;0.50;;;9.30;99.90;;;;;;5036057;28;20050;-89
2023/04/20 09:59:01;;;;;;;0.30;0.30;;;9.40;99.90;;;;;;5035983;28;20484;-88
2023/04/20 10:01:34;;;;;;;0.70;0.70;;;9.50;99.90;;;;;;5034936;28;20053;-90
2023/04/20 10:04:02;;;;;;;0.40;0.40;;;9.50;99.90;;;;;;5051091;28;20057;-86
2023/04/20 10:06:33;;;;;;;0.30;0.30;;;9.60;99.90;;;;;;5053534;28;20049;-88
2023/04/20 10:09:01;;;;;;;0.70;0.70;;;9.50;99.90;;;;;;5038319;28;20061;-85
2023/04/20 10:11:28;;;;;;;0.57;0.57;;;9.60;99.90;;;;;;5021926;28;20053;-86
2023/04/20 10:13:55;;;;;;;0.30;0.30;;;9.60;99.90;;;;;;5022576;28;20404;-85
2023/04/20 10:16:21;;;;;;;0.70;0.70;;;9.60;99.90;;;;;;5037162;28;20050;-86
2023/04/20 10:18:58;;;;;;;;;;;9.70;99.90;;;;;;5038846;28;20128;-88
2023/04/20 10:21:23;;;;;;;0.35;0.35;;;9.90;99.90;;;;;;5055653;28;19921;-87
2023/04/20 10:23:50;;;;;;;0.68;0.68;;;9.80;99.90;;;;;;5041307;28;20049;-86
2023/04/20 10:26:16;;;;;;;0.57;0.57;;;9.60;99.90;;;;;;5023077;28;20114;-87
2023/04/20 10:28:43;;;;;;;0.47;0.47;;;9.40;99.90;;;;;;5039234;28;20461;-86
2023/04/20 10:31:15;;;;;;;0.50;0.50;;;9.30;99.90;;;;;;5038480;28;20433;-87
2023/04/20 10:33:55;;;;;;;0.50;0.50;;;9.20;99.90;;;;;;5055014;28;20076;-84
2023/04/20 10:36:35;;;;;;;0.52;0.52;;;9.00;99.90;;;;;;5055513;28;20449;-86
2023/04/20 10:39:21;;;;;;;0.47;0.47;;;8.90;99.90;;;;;;5040569;28;20452;-86
2023/04/20 10:42:05;;;;;;;0.40;0.40;;;8.80;99.90;;;;;;5022479;28;20049;-87
2023/04/20 10:44:32;;;;;;;0.40;0.40;;;8.80;99.90;;;;;;5039624;28;20041;-88
2023/04/20 10:46:58;;;;;;;0.55;0.55;;;8.70;99.90;;;;;;5039212;28;20128;-88
2023/04/20 10:49:28;;;;;;;0.50;0.50;;;8.60;99.90;;;;;;5038897;28;20436;-88
2023/04/20 10:51:55;;;;;;;0.35;0.35;;;8.50;99.90;;;;;;5039567;28;20049;-82
2023/04/20 10:54:21;;;;;;;0.40;0.40;;;8.50;99.90;;;;;;5038878;28;20049;-86
2023/04/20 10:56:52;;;;;;;0.65;0.65;;;8.40;99.90;;;;;;5042392;28;20057;-87
2023/04/20 10:59:21;;;;;;;0.40;0.40;;;8.40;99.90;;;;;;5040201;28;20105;-88
2023/04/20 11:01:48;;;;;;;0.38;0.38;;;8.50;99.90;;;;;;5058695;28;20061;-87
2023/04/20 11:04:14;;;;;;;0.50;0.50;;;8.80;99.90;;;;;;5038416;28;20048;-88
2023/04/20 11:06:43;;;;;;;0.50;0.50;;;8.90;99.90;;;;;;5022939;28;20061;-86
2023/04/20 11:09:25;;;;;;;0.40;0.40;;;9.00;99.90;;;;;;5038174;28;20060;-88
2023/04/20 11:12:02;;;;;;;0.50;0.50;;;9.20;99.90;;;;;;5056050;28;20046;-86
2023/04/20 11:14:41;;;;;;;0.55;0.55;;;9.30;99.90;;;;;;5039714;28;20056;-88
2023/04/20 11:17:07;;;;;;;0.50;0.50;;;9.30;99.90;;;;;;5053662;28;20053;-88
2023/04/20 11:19:35;;;;;;;0.68;0.68;;;9.30;99.90;;;;;;5040060;28;20096;-83
2023/04/20 11:22:02;;;;;;;0.40;0.40;;;9.10;99.90;;;;;;5039556;28;20400;-85
2023/04/20 11:24:30;;;;;;;0.50;0.50;;;9.10;99.90;;;;;;5040082;28;20049;-88
2023/04/20 11:26:56;;;;;;;0.32;0.32;;;9.10;99.90;;;;;;5039807;28;20544;-84
2023/04/20 11:29:40;;;;;;;;;;;9.20;99.90;;;;;;5043843;28;20100;-83
2023/04/20 11:32:08;;;;;;;0.30;0.30;;;9.30;99.90;;;;;;5042305;28;19932;-87
2023/04/20 11:34:35;;;;;;;0.38;0.38;;;9.30;99.90;;;;;;5056571;28;20052;-88
2023/04/20 11:37:09;;;;;;;0.50;0.50;;;9.30;99.90;;;;;;5039401;28;20041;-88
2023/04/20 11:39:36;;;;;;;0.50;0.50;;;9.20;99.90;;;;;;5056014;28;20494;-90
2023/04/20 11:42:02;;;;;;;0.70;0.70;;;9.10;99.90;;;;;;5040652;28;20049;-87
2023/04/20 11:44:28;;;;;;;0.95;0.95;;;9.10;99.90;;;;;;5038761;28;20372;-88
2023/04/20 11:46:57;;;;;;;0.40;0.40;;;9.10;99.90;;;;;;5038434;28;20048;-89
2023/04/20 11:49:25;;;;;;;0.63;0.63;;;9.20;99.90;;;;;;5055133;28;20038;-88
2023/04/20 11:51:51;;;;;;;0.50;0.50;;;9.20;99.90;;;;;;5039271;28;20049;-85
2023/04/20 11:54:21;;;;;;;;;;;9.20;99.90;;;;;;5039161;28;20085;-86
2023/04/20 11:56:46;;;;;;;0.30;0.30;;;9.20;99.90;;;;;;5037680;28;20032;-90
2023/04/20 11:59:13;;;;;;;0.40;0.40;;;9.20;99.90;;;;;;5038352;28;20095;-86
2023/04/20 12:01:39;;;;;;;0.80;0.57;;;9.30;99.90;;;;;;5021731;28;20099;-87
2023/04/20 12:04:05;;;;;;;;;;;9.40;99.90;;;;;;5038131;28;20050;-89
2023/04/20 12:06:31;;;;;;;1.13;1.10;;;9.60;99.90;;;;;;5037591;28;20024;-87
2023/04/20 12:08:57;;;;;;;;;;;10.00;99.90;;;;;;5021361;28;20137;-90
2023/04/20 12:11:23;;;;;;;0.50;0.50;;;10.70;99.90;;;;;;5038215;28;19917;-84
2023/04/20 12:13:49;;;;;;;;;;;11.40;99.90;;;;;;5038683;28;20380;-84
2023/04/20 12:16:15;;;;;;;0.75;0.52;;;11.70;99.90;;;;;;5038333;28;20007;-84
2023/04/20 12:18:41;;;;;;;1.95;0.88;;;11.80;99.90;;;;;;5022326;28;20054;-87
2023/04/20 12:21:07;;;;;;;0.38;0.38;;;11.60;99.90;;;;;;5039059;28;20469;-86
2023/04/20 12:23:35;;;;;;;0.50;0.50;;;11.60;99.90;;;;;;5020262;28;20106;-87
2023/04/20 12:26:02;;;;;;;0.40;0.40;;;11.50;99.90;;;;;;5021640;28;20060;-82
2023/04/20 12:28:28;;;;;;;0.30;0.30;;;11.50;99.90;;;;;;5020794;28;20053;-85
2023/04/20 12:30:54;;;;;;;;;;;11.70;99.90;;;;;;5021514;28;20053;-87
2023/04/20 12:33:20;;;;;;;0.40;0.40;;;12.00;99.90;;;;;;5036667;28;19917;-85
2023/04/20 12:35:45;;;;;;;0.45;0.45;;;12.20;99.90;;;;;;5036295;28;20104;-86
2023/04/20 12:38:11;;;;;;;0.60;0.45;;;12.10;99.90;;;;;;5036622;28;20091;-88
2023/04/20 12:40:37;;;;;;;0.40;0.40;;;11.90;99.90;;;;;;5035787;28;20377;-86
2023/04/20 12:43:03;;;;;;;0.30;0.30;;;11.90;99.90;;;;;;5035825;28;20449;-82
2023/04/20 12:45:28;;;;;;;0.55;0.38;;;12.00;99.90;;;;;;5037256;28;20061;-88
2023/04/20 12:47:54;;;;;;;0.35;0.35;;;12.00;99.90;;;;;;5036937;28;20056;-88
2023/04/20 12:50:20;;;;;;;0.30;0.30;;;12.00;99.90;;;;;;5038623;28;20372;-87
2023/04/20 12:52:46;;;;;;;0.90;0.75;;;12.20;99.90;;;;;;5037614;28;20117;-89
2023/04/20 12:55:13;;;;;;;0.60;0.60;;;12.70;99.90;;;;;;5037442;28;20044;-86
2023/04/20 12:57:38;;;;;;;0.43;0.43;;;13.10;99.90;;;;;;5038021;28;20132;-84
2023/04/20 13:00:05;;;;;;;0.50;0.50;;;13.30;99.90;;;;;;5019485;28;20081;-83
2023/04/20 13:02:32;;;;;;;0.80;0.40;;;13.40;99.90;;;;;;5035990;28;20111;-87